sensor_id;sensor_type;location;lat;lon;timestamp;P1;durP1;ratioP1;P2;durP2;ratioP2
49217;SDS011;35045;51.194;7.268;2022-08-27T00:02:03;11.52;;;8.95;;
49217;SDS011;35045;51.194;7.268;2022-08-27T00:04:28;12.18;;;8.93;;
49217;SDS011;35045;51.194;7.268;2022-08-27T00:06:54;10.70;;;9.07;;
49217;SDS011;35045;51.194;7.268;2022-08-27T00:09:19;10.15;;;8.40;;
49217;SDS011;35045;51.194;7.268;2022-08-27T00:11:44;10.38;;;8.45;;
49217;SDS011;35045;51.194;7.268;2022-08-27T00:16:34;9.70;;;8.15;;
49217;SDS011;35045;51.194;7.268;2022-08-27T00:18:59;9.35;;;7.68;;
49217;SDS011;35045;51.194;7.268;2022-08-27T00:21:24;11.05;;;7.68;;
49217;SDS011;35045;51.194;7.268;2022-08-27T00:23:50;10.02;;;8.25;;
49217;SDS011;35045;51.194;7.268;2022-08-27T00:26:15;9.77;;;8.10;;
49217;SDS011;35045;51.194;7.268;2022-08-27T00:28:41;10.18;;;7.47;;
49217;SDS011;35045;51.194;7.268;2022-08-27T00:31:06;9.80;;;8.05;;
49217;SDS011;35045;51.194;7.268;2022-08-27T00:33:32;10.23;;;8.48;;
49217;SDS011;35045;51.194;7.268;2022-08-27T00:35:57;11.13;;;8.93;;
49217;SDS011;35045;51.194;7.268;2022-08-27T00:38:23;10.93;;;8.23;;
49217;SDS011;35045;51.194;7.268;2022-08-27T00:43:19;11.03;;;8.67;;
49217;SDS011;35045;51.194;7.268;2022-08-27T00:45:48;11.43;;;7.87;;
49217;SDS011;35045;51.194;7.268;2022-08-27T00:48:17;9.55;;;7.60;;
49217;SDS011;35045;51.194;7.268;2022-08-27T00:50:45;10.55;;;8.65;;
49217;SDS011;35045;51.194;7.268;2022-08-27T00:53:15;11.05;;;8.18;;
49217;SDS011;35045;51.194;7.268;2022-08-27T00:55:46;11.05;;;8.77;;
49217;SDS011;35045;51.194;7.268;2022-08-27T00:58:17;12.57;;;9.63;;
49217;SDS011;35045;51.194;7.268;2022-08-27T01:00:55;12.63;;;10.13;;
49217;SDS011;35045;51.194;7.268;2022-08-27T01:03:22;14.48;;;10.13;;
49217;SDS011;35045;51.194;7.268;2022-08-27T01:05:49;13.23;;;9.68;;
49217;SDS011;35045;51.194;7.268;2022-08-27T01:08:19;12.60;;;11.10;;
49217;SDS011;35045;51.194;7.268;2022-08-27T01:10:46;13.63;;;11.57;;
49217;SDS011;35045;51.194;7.268;2022-08-27T01:13:14;14.20;;;10.52;;
49217;SDS011;35045;51.194;7.268;2022-08-27T01:15:42;16.05;;;12.10;;
49217;SDS011;35045;51.194;7.268;2022-08-27T01:18:07;14.65;;;11.70;;
49217;SDS011;35045;51.194;7.268;2022-08-27T01:20:39;14.05;;;11.75;;
49217;SDS011;35045;51.194;7.268;2022-08-27T01:26:09;15.60;;;12.52;;
49217;SDS011;35045;51.194;7.268;2022-08-27T01:28:37;13.90;;;12.13;;
49217;SDS011;35045;51.194;7.268;2022-08-27T01:31:06;17.15;;;11.98;;
49217;SDS011;35045;51.194;7.268;2022-08-27T01:33:33;14.93;;;12.40;;
49217;SDS011;35045;51.194;7.268;2022-08-27T01:35:59;15.73;;;12.93;;
49217;SDS011;35045;51.194;7.268;2022-08-27T01:38:24;19.10;;;13.73;;
49217;SDS011;35045;51.194;7.268;2022-08-27T01:40:50;16.23;;;12.68;;
49217;SDS011;35045;51.194;7.268;2022-08-27T01:43:15;16.52;;;13.77;;
49217;SDS011;35045;51.194;7.268;2022-08-27T01:45:44;16.88;;;14.20;;
49217;SDS011;35045;51.194;7.268;2022-08-27T01:48:11;17.85;;;13.10;;
49217;SDS011;35045;51.194;7.268;2022-08-27T01:50:38;16.00;;;13.50;;
49217;SDS011;35045;51.194;7.268;2022-08-27T01:53:05;16.48;;;12.65;;
49217;SDS011;35045;51.194;7.268;2022-08-27T01:55:34;16.30;;;13.75;;
49217;SDS011;35045;51.194;7.268;2022-08-27T01:57:59;15.90;;;12.95;;
49217;SDS011;35045;51.194;7.268;2022-08-27T02:00:26;17.25;;;14.07;;
49217;SDS011;35045;51.194;7.268;2022-08-27T02:02:54;16.00;;;13.32;;
49217;SDS011;35045;51.194;7.268;2022-08-27T02:05:20;16.50;;;12.85;;
49217;SDS011;35045;51.194;7.268;2022-08-27T02:07:46;16.00;;;12.95;;
49217;SDS011;35045;51.194;7.268;2022-08-27T02:10:14;16.58;;;13.43;;
49217;SDS011;35045;51.194;7.268;2022-08-27T02:12:42;16.45;;;13.07;;
49217;SDS011;35045;51.194;7.268;2022-08-27T02:15:08;18.05;;;13.00;;
49217;SDS011;35045;51.194;7.268;2022-08-27T02:17:34;14.75;;;12.02;;
49217;SDS011;35045;51.194;7.268;2022-08-27T02:19:59;15.88;;;12.88;;
49217;SDS011;35045;51.194;7.268;2022-08-27T02:22:24;14.98;;;12.32;;
49217;SDS011;35045;51.194;7.268;2022-08-27T02:24:50;14.27;;;12.18;;
49217;SDS011;35045;51.194;7.268;2022-08-27T02:27:15;15.60;;;13.57;;
49217;SDS011;35045;51.194;7.268;2022-08-27T02:29:40;16.50;;;13.43;;
49217;SDS011;35045;51.194;7.268;2022-08-27T02:32:05;16.08;;;13.10;;
49217;SDS011;35045;51.194;7.268;2022-08-27T02:34:30;18.63;;;13.27;;
49217;SDS011;35045;51.194;7.268;2022-08-27T02:36:55;16.92;;;13.65;;
49217;SDS011;35045;51.194;7.268;2022-08-27T02:39:20;16.40;;;14.00;;
49217;SDS011;35045;51.194;7.268;2022-08-27T02:41:45;18.20;;;14.75;;
49217;SDS011;35045;51.194;7.268;2022-08-27T02:44:11;18.45;;;15.00;;
49217;SDS011;35045;51.194;7.268;2022-08-27T02:46:37;17.55;;;14.48;;
49217;SDS011;35045;51.194;7.268;2022-08-27T02:49:03;17.80;;;14.65;;
49217;SDS011;35045;51.194;7.268;2022-08-27T02:51:28;19.10;;;14.60;;
49217;SDS011;35045;51.194;7.268;2022-08-27T02:53:53;16.08;;;13.75;;
49217;SDS011;35045;51.194;7.268;2022-08-27T02:56:18;14.93;;;12.93;;
49217;SDS011;35045;51.194;7.268;2022-08-27T02:58:43;14.98;;;12.63;;
49217;SDS011;35045;51.194;7.268;2022-08-27T03:01:09;14.25;;;12.63;;
49217;SDS011;35045;51.194;7.268;2022-08-27T03:03:34;16.08;;;12.57;;
49217;SDS011;35045;51.194;7.268;2022-08-27T03:05:59;16.08;;;12.98;;
49217;SDS011;35045;51.194;7.268;2022-08-27T03:08:25;15.20;;;13.55;;
49217;SDS011;35045;51.194;7.268;2022-08-27T03:10:51;23.55;;;13.75;;
49217;SDS011;35045;51.194;7.268;2022-08-27T03:13:17;17.08;;;14.85;;
49217;SDS011;35045;51.194;7.268;2022-08-27T03:15:42;18.92;;;15.45;;
49217;SDS011;35045;51.194;7.268;2022-08-27T03:18:07;18.35;;;15.35;;
49217;SDS011;35045;51.194;7.268;2022-08-27T03:20:41;17.92;;;15.98;;
49217;SDS011;35045;51.194;7.268;2022-08-27T03:23:08;18.10;;;14.02;;
49217;SDS011;35045;51.194;7.268;2022-08-27T03:25:34;15.60;;;13.35;;
49217;SDS011;35045;51.194;7.268;2022-08-27T03:28:00;16.02;;;13.38;;
49217;SDS011;35045;51.194;7.268;2022-08-27T03:30:25;15.35;;;12.82;;
49217;SDS011;35045;51.194;7.268;2022-08-27T03:32:51;15.68;;;13.18;;
49217;SDS011;35045;51.194;7.268;2022-08-27T03:35:16;15.65;;;12.93;;
49217;SDS011;35045;51.194;7.268;2022-08-27T03:37:42;15.05;;;13.07;;
49217;SDS011;35045;51.194;7.268;2022-08-27T03:40:08;22.10;;;13.38;;
49217;SDS011;35045;51.194;7.268;2022-08-27T03:42:34;14.10;;;11.80;;
49217;SDS011;35045;51.194;7.268;2022-08-27T03:44:59;19.60;;;14.18;;
49217;SDS011;35045;51.194;7.268;2022-08-27T03:47:24;19.25;;;14.55;;
49217;SDS011;35045;51.194;7.268;2022-08-27T03:49:49;17.85;;;14.55;;
49217;SDS011;35045;51.194;7.268;2022-08-27T03:52:14;17.95;;;13.85;;
49217;SDS011;35045;51.194;7.268;2022-08-27T03:54:40;15.88;;;13.38;;
49217;SDS011;35045;51.194;7.268;2022-08-27T03:59:31;16.20;;;13.10;;
49217;SDS011;35045;51.194;7.268;2022-08-27T04:01:56;15.85;;;13.68;;
49217;SDS011;35045;51.194;7.268;2022-08-27T04:04:21;21.10;;;15.88;;
49217;SDS011;35045;51.194;7.268;2022-08-27T04:06:49;18.08;;;16.08;;
49217;SDS011;35045;51.194;7.268;2022-08-27T04:09:15;21.00;;;16.58;;
49217;SDS011;35045;51.194;7.268;2022-08-27T04:11:40;21.08;;;16.42;;
49217;SDS011;35045;51.194;7.268;2022-08-27T04:14:06;19.30;;;14.43;;
49217;SDS011;35045;51.194;7.268;2022-08-27T04:16:32;14.82;;;13.32;;
49217;SDS011;35045;51.194;7.268;2022-08-27T04:21:22;16.50;;;12.93;;
49217;SDS011;35045;51.194;7.268;2022-08-27T04:23:47;15.95;;;12.95;;
49217;SDS011;35045;51.194;7.268;2022-08-27T04:26:12;17.38;;;11.80;;
49217;SDS011;35045;51.194;7.268;2022-08-27T04:31:03;13.85;;;12.23;;
49217;SDS011;35045;51.194;7.268;2022-08-27T04:33:28;15.00;;;11.95;;
49217;SDS011;35045;51.194;7.268;2022-08-27T04:35:56;17.10;;;12.10;;
49217;SDS011;35045;51.194;7.268;2022-08-27T04:38:33;13.68;;;12.00;;
49217;SDS011;35045;51.194;7.268;2022-08-27T04:41:01;15.77;;;11.93;;
49217;SDS011;35045;51.194;7.268;2022-08-27T04:43:54;14.43;;;11.65;;
49217;SDS011;35045;51.194;7.268;2022-08-27T04:48:47;15.45;;;11.32;;
49217;SDS011;35045;51.194;7.268;2022-08-27T04:51:12;14.68;;;11.15;;
49217;SDS011;35045;51.194;7.268;2022-08-27T04:53:37;12.93;;;11.40;;
49217;SDS011;35045;51.194;7.268;2022-08-27T04:56:02;15.55;;;12.30;;
49217;SDS011;35045;51.194;7.268;2022-08-27T04:58:28;15.68;;;12.30;;
49217;SDS011;35045;51.194;7.268;2022-08-27T05:00:54;16.20;;;13.50;;
49217;SDS011;35045;51.194;7.268;2022-08-27T05:03:21;16.38;;;13.43;;
49217;SDS011;35045;51.194;7.268;2022-08-27T05:05:47;23.23;;;13.13;;
49217;SDS011;35045;51.194;7.268;2022-08-27T05:08:13;19.17;;;13.68;;
49217;SDS011;35045;51.194;7.268;2022-08-27T05:10:39;18.55;;;14.02;;
49217;SDS011;35045;51.194;7.268;2022-08-27T05:13:04;20.35;;;14.00;;
49217;SDS011;35045;51.194;7.268;2022-08-27T05:15:29;19.75;;;13.70;;
49217;SDS011;35045;51.194;7.268;2022-08-27T05:17:54;16.80;;;13.30;;
49217;SDS011;35045;51.194;7.268;2022-08-27T05:20:23;16.95;;;12.48;;
49217;SDS011;35045;51.194;7.268;2022-08-27T05:22:49;16.00;;;12.23;;
49217;SDS011;35045;51.194;7.268;2022-08-27T05:25:14;17.08;;;12.63;;
49217;SDS011;35045;51.194;7.268;2022-08-27T05:27:39;14.35;;;11.98;;
49217;SDS011;35045;51.194;7.268;2022-08-27T05:30:05;14.52;;;11.65;;
49217;SDS011;35045;51.194;7.268;2022-08-27T05:32:30;14.88;;;10.00;;
49217;SDS011;35045;51.194;7.268;2022-08-27T05:34:55;12.05;;;10.00;;
49217;SDS011;35045;51.194;7.268;2022-08-27T05:37:20;14.25;;;10.73;;
49217;SDS011;35045;51.194;7.268;2022-08-27T05:39:45;14.75;;;10.90;;
49217;SDS011;35045;51.194;7.268;2022-08-27T05:42:10;12.93;;;9.98;;
49217;SDS011;35045;51.194;7.268;2022-08-27T05:44:35;15.18;;;9.68;;
49217;SDS011;35045;51.194;7.268;2022-08-27T05:47:01;14.88;;;9.70;;
49217;SDS011;35045;51.194;7.268;2022-08-27T05:49:27;11.48;;;9.00;;
49217;SDS011;35045;51.194;7.268;2022-08-27T05:51:52;13.77;;;9.68;;
49217;SDS011;35045;51.194;7.268;2022-08-27T05:54:17;11.75;;;8.90;;
49217;SDS011;35045;51.194;7.268;2022-08-27T05:56:45;13.63;;;8.55;;
49217;SDS011;35045;51.194;7.268;2022-08-27T05:59:12;12.18;;;8.38;;
49217;SDS011;35045;51.194;7.268;2022-08-27T06:01:56;12.10;;;8.38;;
49217;SDS011;35045;51.194;7.268;2022-08-27T06:04:22;10.10;;;7.43;;
49217;SDS011;35045;51.194;7.268;2022-08-27T06:06:48;12.70;;;7.25;;
49217;SDS011;35045;51.194;7.268;2022-08-27T06:09:18;11.68;;;7.80;;
49217;SDS011;35045;51.194;7.268;2022-08-27T06:11:45;9.90;;;7.60;;
49217;SDS011;35045;51.194;7.268;2022-08-27T06:14:10;11.15;;;7.25;;
49217;SDS011;35045;51.194;7.268;2022-08-27T06:16:36;10.35;;;7.28;;
49217;SDS011;35045;51.194;7.268;2022-08-27T06:19:03;12.02;;;7.38;;
49217;SDS011;35045;51.194;7.268;2022-08-27T06:21:29;11.25;;;8.23;;
49217;SDS011;35045;51.194;7.268;2022-08-27T06:23:54;11.32;;;7.55;;
49217;SDS011;35045;51.194;7.268;2022-08-27T06:26:20;8.25;;;6.80;;
49217;SDS011;35045;51.194;7.268;2022-08-27T06:28:47;10.20;;;7.25;;
49217;SDS011;35045;51.194;7.268;2022-08-27T06:33:39;11.52;;;7.05;;
49217;SDS011;35045;51.194;7.268;2022-08-27T06:36:06;7.85;;;6.07;;
49217;SDS011;35045;51.194;7.268;2022-08-27T06:38:34;8.38;;;6.30;;
49217;SDS011;35045;51.194;7.268;2022-08-27T06:41:01;9.38;;;5.57;;
49217;SDS011;35045;51.194;7.268;2022-08-27T06:43:30;9.40;;;6.15;;
49217;SDS011;35045;51.194;7.268;2022-08-27T06:46:00;7.78;;;6.00;;
49217;SDS011;35045;51.194;7.268;2022-08-27T06:48:28;9.82;;;6.47;;
49217;SDS011;35045;51.194;7.268;2022-08-27T06:50:53;8.77;;;5.75;;
49217;SDS011;35045;51.194;7.268;2022-08-27T06:53:18;7.28;;;5.43;;
49217;SDS011;35045;51.194;7.268;2022-08-27T06:55:44;9.07;;;5.45;;
49217;SDS011;35045;51.194;7.268;2022-08-27T06:58:11;8.32;;;5.32;;
49217;SDS011;35045;51.194;7.268;2022-08-27T07:00:37;11.05;;;5.60;;
49217;SDS011;35045;51.194;7.268;2022-08-27T07:05:30;8.10;;;5.32;;
49217;SDS011;35045;51.194;7.268;2022-08-27T07:07:59;9.23;;;5.18;;
49217;SDS011;35045;51.194;7.268;2022-08-27T07:10:24;9.75;;;4.85;;
49217;SDS011;35045;51.194;7.268;2022-08-27T07:12:50;9.23;;;5.20;;
49217;SDS011;35045;51.194;7.268;2022-08-27T07:15:15;9.35;;;5.68;;
49217;SDS011;35045;51.194;7.268;2022-08-27T07:17:41;10.25;;;5.43;;
49217;SDS011;35045;51.194;7.268;2022-08-27T07:20:08;9.07;;;5.07;;
49217;SDS011;35045;51.194;7.268;2022-08-27T07:22:34;8.57;;;5.45;;
49217;SDS011;35045;51.194;7.268;2022-08-27T07:24:59;10.13;;;5.03;;
49217;SDS011;35045;51.194;7.268;2022-08-27T07:27:24;8.90;;;6.00;;
49217;SDS011;35045;51.194;7.268;2022-08-27T07:29:49;9.23;;;5.60;;
49217;SDS011;35045;51.194;7.268;2022-08-27T07:32:14;8.73;;;5.72;;
49217;SDS011;35045;51.194;7.268;2022-08-27T07:34:39;8.68;;;5.40;;
49217;SDS011;35045;51.194;7.268;2022-08-27T07:37:04;11.50;;;5.82;;
49217;SDS011;35045;51.194;7.268;2022-08-27T07:39:29;8.02;;;5.30;;
49217;SDS011;35045;51.194;7.268;2022-08-27T07:41:57;9.18;;;4.75;;
49217;SDS011;35045;51.194;7.268;2022-08-27T07:44:57;8.75;;;5.07;;
49217;SDS011;35045;51.194;7.268;2022-08-27T07:47:22;8.65;;;4.70;;
49217;SDS011;35045;51.194;7.268;2022-08-27T07:49:48;9.65;;;5.35;;
49217;SDS011;35045;51.194;7.268;2022-08-27T07:52:13;9.18;;;5.50;;
49217;SDS011;35045;51.194;7.268;2022-08-27T07:54:39;8.20;;;4.93;;
49217;SDS011;35045;51.194;7.268;2022-08-27T07:57:04;9.48;;;5.28;;
49217;SDS011;35045;51.194;7.268;2022-08-27T07:59:29;9.20;;;5.28;;
49217;SDS011;35045;51.194;7.268;2022-08-27T08:01:54;11.85;;;6.07;;
49217;SDS011;35045;51.194;7.268;2022-08-27T08:04:20;13.10;;;6.13;;
49217;SDS011;35045;51.194;7.268;2022-08-27T08:06:46;12.15;;;6.40;;
49217;SDS011;35045;51.194;7.268;2022-08-27T08:09:12;11.55;;;6.68;;
49217;SDS011;35045;51.194;7.268;2022-08-27T08:11:37;12.25;;;7.22;;
49217;SDS011;35045;51.194;7.268;2022-08-27T08:14:02;12.23;;;6.88;;
49217;SDS011;35045;51.194;7.268;2022-08-27T08:16:27;9.88;;;6.47;;
49217;SDS011;35045;51.194;7.268;2022-08-27T08:18:52;10.90;;;6.63;;
49217;SDS011;35045;51.194;7.268;2022-08-27T08:23:42;9.50;;;7.32;;
49217;SDS011;35045;51.194;7.268;2022-08-27T08:26:08;12.18;;;7.20;;
49217;SDS011;35045;51.194;7.268;2022-08-27T08:28:35;11.23;;;7.35;;
49217;SDS011;35045;51.194;7.268;2022-08-27T08:31:00;14.10;;;7.38;;
49217;SDS011;35045;51.194;7.268;2022-08-27T08:33:26;10.85;;;6.45;;
49217;SDS011;35045;51.194;7.268;2022-08-27T08:35:52;11.10;;;8.02;;
49217;SDS011;35045;51.194;7.268;2022-08-27T08:38:18;12.18;;;8.18;;
49217;SDS011;35045;51.194;7.268;2022-08-27T08:40:45;13.07;;;8.00;;
49217;SDS011;35045;51.194;7.268;2022-08-27T08:43:47;14.10;;;8.23;;
49217;SDS011;35045;51.194;7.268;2022-08-27T08:46:10;11.35;;;7.22;;
49217;SDS011;35045;51.194;7.268;2022-08-27T08:48:48;12.18;;;7.07;;
49217;SDS011;35045;51.194;7.268;2022-08-27T08:53:54;13.63;;;7.55;;
49217;SDS011;35045;51.194;7.268;2022-08-27T08:56:29;13.70;;;7.88;;
49217;SDS011;35045;51.194;7.268;2022-08-27T09:01:37;16.20;;;8.50;;
49217;SDS011;35045;51.194;7.268;2022-08-27T09:04:03;11.00;;;7.88;;
49217;SDS011;35045;51.194;7.268;2022-08-27T09:06:38;12.18;;;7.63;;
49217;SDS011;35045;51.194;7.268;2022-08-27T09:09:20;14.05;;;7.78;;
49217;SDS011;35045;51.194;7.268;2022-08-27T09:11:54;12.40;;;7.43;;
49217;SDS011;35045;51.194;7.268;2022-08-27T09:14:33;13.82;;;8.15;;
49217;SDS011;35045;51.194;7.268;2022-08-27T09:17:06;11.82;;;7.78;;
49217;SDS011;35045;51.194;7.268;2022-08-27T09:19:32;11.13;;;7.57;;
49217;SDS011;35045;51.194;7.268;2022-08-27T09:22:04;13.43;;;8.15;;
49217;SDS011;35045;51.194;7.268;2022-08-27T09:27:13;12.20;;;7.00;;
49217;SDS011;35045;51.194;7.268;2022-08-27T09:32:11;12.45;;;7.47;;
49217;SDS011;35045;51.194;7.268;2022-08-27T09:34:37;12.70;;;7.68;;
49217;SDS011;35045;51.194;7.268;2022-08-27T09:37:11;11.65;;;7.80;;
49217;SDS011;35045;51.194;7.268;2022-08-27T09:42:19;13.18;;;8.65;;
49217;SDS011;35045;51.194;7.268;2022-08-27T09:44:54;14.50;;;9.30;;
49217;SDS011;35045;51.194;7.268;2022-08-27T09:47:20;14.38;;;8.73;;
49217;SDS011;35045;51.194;7.268;2022-08-27T09:49:45;11.95;;;9.15;;
49217;SDS011;35045;51.194;7.268;2022-08-27T09:54:52;13.80;;;9.43;;
49217;SDS011;35045;51.194;7.268;2022-08-27T09:57:27;16.73;;;11.32;;
49217;SDS011;35045;51.194;7.268;2022-08-27T09:59:57;16.35;;;11.73;;
49217;SDS011;35045;51.194;7.268;2022-08-27T10:02:23;18.70;;;11.27;;
49217;SDS011;35045;51.194;7.268;2022-08-27T10:04:50;17.88;;;11.00;;
49217;SDS011;35045;51.194;7.268;2022-08-27T10:07:20;18.50;;;11.57;;
49217;SDS011;35045;51.194;7.268;2022-08-27T10:10:02;17.10;;;11.60;;
49217;SDS011;35045;51.194;7.268;2022-08-27T10:12:44;15.40;;;10.90;;
49217;SDS011;35045;51.194;7.268;2022-08-27T10:15:10;15.75;;;10.43;;
49217;SDS011;35045;51.194;7.268;2022-08-27T10:28:15;14.20;;;9.90;;
49217;SDS011;35045;51.194;7.268;2022-08-27T10:39:11;12.75;;;9.00;;
49217;SDS011;35045;51.194;7.268;2022-08-27T10:41:41;15.32;;;8.32;;
49217;SDS011;35045;51.194;7.268;2022-08-27T10:44:14;11.13;;;7.25;;
49217;SDS011;35045;51.194;7.268;2022-08-27T10:46:54;10.98;;;6.97;;
49217;SDS011;35045;51.194;7.268;2022-08-27T10:49:42;9.25;;;5.95;;
49217;SDS011;35045;51.194;7.268;2022-08-27T10:54:52;10.93;;;4.35;;
49217;SDS011;35045;51.194;7.268;2022-08-27T10:57:34;7.40;;;3.70;;
49217;SDS011;35045;51.194;7.268;2022-08-27T11:00:23;8.38;;;4.07;;
49217;SDS011;35045;51.194;7.268;2022-08-27T11:05:23;8.65;;;3.78;;
49217;SDS011;35045;51.194;7.268;2022-08-27T11:07:53;10.55;;;3.47;;
49217;SDS011;35045;51.194;7.268;2022-08-27T11:10:29;7.32;;;3.13;;
49217;SDS011;35045;51.194;7.268;2022-08-27T11:13:04;8.23;;;3.13;;
49217;SDS011;35045;51.194;7.268;2022-08-27T11:15:34;8.35;;;3.45;;
49217;SDS011;35045;51.194;7.268;2022-08-27T11:18:07;6.78;;;2.95;;
49217;SDS011;35045;51.194;7.268;2022-08-27T11:20:40;8.90;;;3.45;;
49217;SDS011;35045;51.194;7.268;2022-08-27T11:23:17;7.15;;;3.10;;
49217;SDS011;35045;51.194;7.268;2022-08-27T11:25:47;9.23;;;3.25;;
49217;SDS011;35045;51.194;7.268;2022-08-27T11:28:22;7.10;;;3.72;;
49217;SDS011;35045;51.194;7.268;2022-08-27T11:36:13;9.85;;;3.70;;
49217;SDS011;35045;51.194;7.268;2022-08-27T11:44:01;9.02;;;3.70;;
49217;SDS011;35045;51.194;7.268;2022-08-27T11:46:27;8.50;;;3.00;;
49217;SDS011;35045;51.194;7.268;2022-08-27T11:49:06;9.23;;;3.78;;
49217;SDS011;35045;51.194;7.268;2022-08-27T11:51:32;8.85;;;3.70;;
49217;SDS011;35045;51.194;7.268;2022-08-27T11:54:01;10.82;;;3.92;;
49217;SDS011;35045;51.194;7.268;2022-08-27T11:59:19;8.20;;;3.72;;
49217;SDS011;35045;51.194;7.268;2022-08-27T12:01:45;10.20;;;3.65;;
49217;SDS011;35045;51.194;7.268;2022-08-27T12:04:22;8.18;;;3.35;;
49217;SDS011;35045;51.194;7.268;2022-08-27T12:07:23;9.43;;;3.70;;
49217;SDS011;35045;51.194;7.268;2022-08-27T12:12:30;10.52;;;3.92;;
49217;SDS011;35045;51.194;7.268;2022-08-27T12:15:23;9.43;;;3.72;;
49217;SDS011;35045;51.194;7.268;2022-08-27T12:23:48;7.60;;;3.80;;
49217;SDS011;35045;51.194;7.268;2022-08-27T12:31:43;7.18;;;3.92;;
49217;SDS011;35045;51.194;7.268;2022-08-27T12:34:15;9.25;;;4.20;;
49217;SDS011;35045;51.194;7.268;2022-08-27T12:36:43;8.77;;;5.10;;
49217;SDS011;35045;51.194;7.268;2022-08-27T12:39:16;10.73;;;4.70;;
49217;SDS011;35045;51.194;7.268;2022-08-27T12:41:46;9.57;;;4.45;;
49217;SDS011;35045;51.194;7.268;2022-08-27T12:44:13;9.18;;;4.70;;
49217;SDS011;35045;51.194;7.268;2022-08-27T12:46:47;7.85;;;4.30;;
49217;SDS011;35045;51.194;7.268;2022-08-27T12:49:16;8.65;;;4.03;;
49217;SDS011;35045;51.194;7.268;2022-08-27T12:51:44;9.07;;;3.85;;
49217;SDS011;35045;51.194;7.268;2022-08-27T13:02:23;7.97;;;3.55;;
49217;SDS011;35045;51.194;7.268;2022-08-27T13:05:09;9.07;;;3.17;;
49217;SDS011;35045;51.194;7.268;2022-08-27T13:07:39;8.02;;;3.80;;
49217;SDS011;35045;51.194;7.268;2022-08-27T13:10:07;7.97;;;3.40;;
49217;SDS011;35045;51.194;7.268;2022-08-27T13:12:33;10.15;;;3.90;;
49217;SDS011;35045;51.194;7.268;2022-08-27T13:15:04;9.77;;;3.50;;
49217;SDS011;35045;51.194;7.268;2022-08-27T13:17:30;8.60;;;3.70;;
49217;SDS011;35045;51.194;7.268;2022-08-27T13:20:01;8.05;;;3.70;;
49217;SDS011;35045;51.194;7.268;2022-08-27T13:22:31;9.07;;;3.90;;
49217;SDS011;35045;51.194;7.268;2022-08-27T13:25:02;9.93;;;3.73;;
49217;SDS011;35045;51.194;7.268;2022-08-27T13:27:29;8.90;;;3.97;;
49217;SDS011;35045;51.194;7.268;2022-08-27T13:29:57;8.57;;;3.67;;
49217;SDS011;35045;51.194;7.268;2022-08-27T13:32:28;8.20;;;3.60;;
49217;SDS011;35045;51.194;7.268;2022-08-27T13:34:54;7.25;;;3.42;;
49217;SDS011;35045;51.194;7.268;2022-08-27T13:37:23;8.00;;;3.33;;
49217;SDS011;35045;51.194;7.268;2022-08-27T13:39:56;6.60;;;3.00;;
49217;SDS011;35045;51.194;7.268;2022-08-27T13:42:21;8.00;;;3.05;;
49217;SDS011;35045;51.194;7.268;2022-08-27T13:44:48;8.90;;;3.53;;
49217;SDS011;35045;51.194;7.268;2022-08-27T13:47:15;8.38;;;3.83;;
49217;SDS011;35045;51.194;7.268;2022-08-27T13:49:44;6.30;;;3.17;;
49217;SDS011;35045;51.194;7.268;2022-08-27T13:52:26;7.75;;;3.10;;
49217;SDS011;35045;51.194;7.268;2022-08-27T13:57:39;7.50;;;2.80;;
49217;SDS011;35045;51.194;7.268;2022-08-27T14:00:14;8.18;;;3.40;;
49217;SDS011;35045;51.194;7.268;2022-08-27T14:02:40;6.43;;;2.70;;
49217;SDS011;35045;51.194;7.268;2022-08-27T14:05:13;7.60;;;2.72;;
49217;SDS011;35045;51.194;7.268;2022-08-27T14:07:45;7.65;;;2.97;;
49217;SDS011;35045;51.194;7.268;2022-08-27T14:10:34;7.43;;;2.92;;
49217;SDS011;35045;51.194;7.268;2022-08-27T14:13:06;5.88;;;2.78;;
49217;SDS011;35045;51.194;7.268;2022-08-27T14:15:38;7.32;;;2.80;;
49217;SDS011;35045;51.194;7.268;2022-08-27T14:20:48;8.15;;;3.03;;
49217;SDS011;35045;51.194;7.268;2022-08-27T14:23:13;6.43;;;2.90;;
49217;SDS011;35045;51.194;7.268;2022-08-27T14:25:38;7.22;;;3.25;;
49217;SDS011;35045;51.194;7.268;2022-08-27T14:28:04;5.90;;;2.92;;
49217;SDS011;35045;51.194;7.268;2022-08-27T14:30:29;7.43;;;2.80;;
49217;SDS011;35045;51.194;7.268;2022-08-27T14:35:21;7.20;;;2.30;;
49217;SDS011;35045;51.194;7.268;2022-08-27T14:37:46;6.47;;;2.70;;
49217;SDS011;35045;51.194;7.268;2022-08-27T14:40:12;6.45;;;2.47;;
49217;SDS011;35045;51.194;7.268;2022-08-27T14:42:38;7.75;;;2.70;;
49217;SDS011;35045;51.194;7.268;2022-08-27T14:45:04;6.75;;;2.42;;
49217;SDS011;35045;51.194;7.268;2022-08-27T14:47:30;6.88;;;2.25;;
49217;SDS011;35045;51.194;7.268;2022-08-27T14:49:55;7.13;;;2.65;;
49217;SDS011;35045;51.194;7.268;2022-08-27T14:52:21;5.85;;;2.33;;
49217;SDS011;35045;51.194;7.268;2022-08-27T14:57:11;8.07;;;2.30;;
49217;SDS011;35045;51.194;7.268;2022-08-27T14:59:36;6.25;;;2.17;;
49217;SDS011;35045;51.194;7.268;2022-08-27T15:02:03;6.10;;;2.30;;
49217;SDS011;35045;51.194;7.268;2022-08-27T15:04:31;12.68;;;3.47;;
49217;SDS011;35045;51.194;7.268;2022-08-27T15:06:56;6.53;;;2.70;;
49217;SDS011;35045;51.194;7.268;2022-08-27T15:09:22;7.72;;;2.83;;
49217;SDS011;35045;51.194;7.268;2022-08-27T15:11:48;9.07;;;3.28;;
49217;SDS011;35045;51.194;7.268;2022-08-27T15:14:19;6.70;;;2.50;;
49217;SDS011;35045;51.194;7.268;2022-08-27T15:16:47;8.40;;;3.28;;
49217;SDS011;35045;51.194;7.268;2022-08-27T15:19:13;7.28;;;3.58;;
49217;SDS011;35045;51.194;7.268;2022-08-27T15:21:39;8.65;;;3.88;;
49217;SDS011;35045;51.194;7.268;2022-08-27T15:24:08;9.23;;;3.55;;
49217;SDS011;35045;51.194;7.268;2022-08-27T15:26:46;7.10;;;3.80;;
49217;SDS011;35045;51.194;7.268;2022-08-27T15:29:11;7.18;;;3.42;;
49217;SDS011;35045;51.194;7.268;2022-08-27T15:31:36;7.35;;;3.85;;
49217;SDS011;35045;51.194;7.268;2022-08-27T15:34:02;7.47;;;3.10;;
49217;SDS011;35045;51.194;7.268;2022-08-27T15:36:28;8.55;;;3.75;;
49217;SDS011;35045;51.194;7.268;2022-08-27T15:38:53;6.28;;;2.95;;
49217;SDS011;35045;51.194;7.268;2022-08-27T15:41:18;7.93;;;2.72;;
49217;SDS011;35045;51.194;7.268;2022-08-27T15:46:08;5.97;;;2.42;;
49217;SDS011;35045;51.194;7.268;2022-08-27T15:48:33;7.20;;;2.42;;
49217;SDS011;35045;51.194;7.268;2022-08-27T15:53:26;8.30;;;2.50;;
49217;SDS011;35045;51.194;7.268;2022-08-27T15:55:51;5.07;;;2.05;;
49217;SDS011;35045;51.194;7.268;2022-08-27T16:00:41;6.47;;;1.90;;
49217;SDS011;35045;51.194;7.268;2022-08-27T16:03:08;7.55;;;2.28;;
49217;SDS011;35045;51.194;7.268;2022-08-27T16:05:37;6.07;;;2.20;;
49217;SDS011;35045;51.194;7.268;2022-08-27T16:08:04;7.53;;;2.05;;
49217;SDS011;35045;51.194;7.268;2022-08-27T16:10:30;7.93;;;2.10;;
49217;SDS011;35045;51.194;7.268;2022-08-27T16:12:55;4.30;;;1.80;;
49217;SDS011;35045;51.194;7.268;2022-08-27T16:15:20;6.90;;;2.05;;
49217;SDS011;35045;51.194;7.268;2022-08-27T16:17:45;9.20;;;2.13;;
49217;SDS011;35045;51.194;7.268;2022-08-27T16:20:11;6.20;;;2.20;;
49217;SDS011;35045;51.194;7.268;2022-08-27T16:22:38;5.30;;;2.10;;
49217;SDS011;35045;51.194;7.268;2022-08-27T16:25:04;8.82;;;2.38;;
49217;SDS011;35045;51.194;7.268;2022-08-27T16:27:30;7.25;;;1.98;;
49217;SDS011;35045;51.194;7.268;2022-08-27T16:29:56;6.40;;;1.90;;
49217;SDS011;35045;51.194;7.268;2022-08-27T16:32:21;5.05;;;1.75;;
49217;SDS011;35045;51.194;7.268;2022-08-27T16:34:46;5.47;;;2.10;;
49217;SDS011;35045;51.194;7.268;2022-08-27T16:37:12;8.52;;;2.00;;
49217;SDS011;35045;51.194;7.268;2022-08-27T16:39:37;6.18;;;2.20;;